createdAt,value
2018-04-28T00:00:14.754Z,90.40
2018-04-28T00:02:15.886Z,90.20
2018-04-28T00:04:16.918Z,90.50
2018-04-28T00:06:17.955Z,91.10
2018-04-28T00:08:22.897Z,92.30
2018-04-28T00:10:23.893Z,91.70
2018-04-28T00:12:25.042Z,91.90
2018-04-28T00:14:26.036Z,91.90
2018-04-28T00:16:27.019Z,91.70
2018-04-28T00:18:27.998Z,92.50
2018-04-28T00:20:28.983Z,91.10
2018-04-28T00:22:33.576Z,92.20
2018-04-28T00:24:39.140Z,92.60
2018-04-28T00:26:41.858Z,92.80
2018-04-28T00:28:42.850Z,92.80
2018-04-28T00:30:43.818Z,93.10
2018-04-28T00:32:44.767Z,92.80
2018-04-28T00:34:56.958Z,93.70
2018-04-28T00:36:58.696Z,94.40
2018-04-28T00:39:00.682Z,94.40
2018-04-28T00:41:01.706Z,94.50
2018-04-28T00:43:02.694Z,95.00
2018-04-28T00:45:08.615Z,95.70
2018-04-28T00:47:16.642Z,96.10
2018-04-28T00:49:18.467Z,96.20
2018-04-28T00:51:20.551Z,96.00
2018-04-28T00:53:23.551Z,96.80
2018-04-28T00:55:44.394Z,96.00
2018-04-28T00:57:58.532Z,96.40
2018-04-28T01:00:00.397Z,96.40
2018-04-28T01:02:01.434Z,96.50
2018-04-28T01:06:47.751Z,96.20
2018-04-28T01:08:48.743Z,96.20
2018-04-28T01:10:49.715Z,96.50
2018-04-28T01:12:50.729Z,96.90
2018-04-28T01:14:57.947Z,95.90
2018-04-28T01:16:58.986Z,95.50
2018-04-28T01:19:00.933Z,96.70
2018-04-28T01:21:02.758Z,95.80
2018-04-28T01:23:06.403Z,96.00
2018-04-28T01:25:10.248Z,96.00
2018-04-28T01:27:14.198Z,94.30
2018-04-28T01:29:17.701Z,94.50
2018-04-28T01:31:22.353Z,95.00
2018-04-28T01:33:31.532Z,95.00
2018-04-28T01:35:38.643Z,95.00
2018-04-28T01:40:21.899Z,94.60
2018-04-28T01:42:38.163Z,94.50
2018-04-28T01:44:40.105Z,95.40
2018-04-28T01:46:42.036Z,95.00
2018-04-28T01:48:45.108Z,94.50
2018-04-28T01:50:53.178Z,94.50
2018-04-28T01:52:55.133Z,94.60
2018-04-28T01:55:03.041Z,94.80
2018-04-28T01:57:11.984Z,95.10
2018-04-28T01:59:13.039Z,95.20
2018-04-28T02:01:24.578Z,94.90
2018-04-28T02:03:38.613Z,94.90
2018-04-28T02:05:45.524Z,95.00
2018-04-28T02:07:47.618Z,95.50
2018-04-28T02:09:50.687Z,95.10
2018-04-28T02:11:57.588Z,95.70
2018-04-28T02:16:36.978Z,95.30
2018-04-28T02:18:38.876Z,95.30
2018-04-28T02:21:02.800Z,95.30
2018-04-28T02:23:09.634Z,94.40
2018-04-28T02:25:17.461Z,95.10
2018-04-28T02:27:20.241Z,94.60
2018-04-28T02:29:22.842Z,94.70
2018-04-28T02:31:28.863Z,94.70
2018-04-28T02:33:32.549Z,94.50
2018-04-28T02:35:54.707Z,94.40
2018-04-28T02:37:56.520Z,94.40
2018-04-28T02:40:08.663Z,94.10
2018-04-28T02:42:10.490Z,94.20
2018-04-28T02:44:19.447Z,94.50
2018-04-28T02:46:31.393Z,95.20
2018-04-28T02:51:21.798Z,94.50
2018-04-28T02:53:22.839Z,94.70
2018-04-28T02:58:20.815Z,95.00
2018-04-28T03:00:28.582Z,95.10
2018-04-28T03:02:46.486Z,95.10
2018-04-28T03:04:51.500Z,95.50
2018-04-28T03:06:56.063Z,95.60
2018-04-28T03:08:57.091Z,95.60
2018-04-28T03:10:59.020Z,95.30
2018-04-28T03:13:00.131Z,95.10
2018-04-28T03:15:01.144Z,95.60
2018-04-28T03:17:07.146Z,95.10
2018-04-28T03:19:14.162Z,95.70
2018-04-28T03:21:15.179Z,96.10
2018-04-28T03:23:25.695Z,96.30
2018-04-28T03:25:33.629Z,96.80
2018-04-28T03:30:06.135Z,96.50
2018-04-28T03:32:07.976Z,97.10
2018-04-28T03:34:38.926Z,97.10
2018-04-28T03:36:39.900Z,96.60
2018-04-28T03:38:41.853Z,96.40
2018-04-28T03:40:43.019Z,96.80
2018-04-28T03:42:44.744Z,97.70
2018-04-28T03:44:47.713Z,97.70
2018-04-28T03:46:51.459Z,97.60
2018-04-28T03:48:58.729Z,97.30
2018-04-28T03:51:06.473Z,97.90
2018-04-28T03:53:19.850Z,97.90
2018-04-28T03:55:20.874Z,97.80
2018-04-28T03:57:36.861Z,97.00
2018-04-28T03:59:50.776Z,96.80
2018-04-28T04:02:04.160Z,96.50
2018-04-28T04:07:05.275Z,96.50
2018-04-28T04:09:07.220Z,96.20
2018-04-28T04:11:21.327Z,96.80
2018-04-28T04:13:34.577Z,96.90
2018-04-28T04:15:42.713Z,96.90
2018-04-28T04:17:52.714Z,96.80
2018-04-28T04:23:14.833Z,96.60
2018-04-28T04:25:15.947Z,96.60
2018-04-28T04:27:16.965Z,96.90
2018-04-28T04:29:21.815Z,97.40
2018-04-28T04:31:34.658Z,97.70
2018-04-28T04:33:56.568Z,97.90
2018-04-28T04:36:06.359Z,98.10
2018-04-28T04:38:14.482Z,98.30
2018-04-28T04:43:13.044Z,98.40
2018-04-28T04:45:29.705Z,97.70
2018-04-28T04:47:35.502Z,97.70
2018-04-28T04:49:41.370Z,97.70
2018-04-28T04:54:29.830Z,97.70
2018-04-28T04:56:46.168Z,97.70
2018-04-28T04:58:47.894Z,98.40
2018-04-28T05:00:50.819Z,98.70
2018-04-28T05:03:06.777Z,99.10
2018-04-28T05:05:12.687Z,99.20
2018-04-28T05:09:50.817Z,99.90
2018-04-28T05:12:02.670Z,99.90
2018-04-28T05:14:22.294Z,99.60
2018-04-28T05:16:24.207Z,99.60
2018-04-28T05:18:37.348Z,99.70
2018-04-28T05:20:41.108Z,99.90
2018-04-28T05:23:07.140Z,99.90
2018-04-28T05:25:20.426Z,99.90
2018-04-28T05:27:42.358Z,99.90
2018-04-28T05:29:46.225Z,99.90
2018-04-28T05:31:59.455Z,99.90
2018-04-28T05:34:03.405Z,99.90
2018-04-28T05:36:15.236Z,99.30
2018-04-28T05:38:23.334Z,99.30
2018-04-28T05:40:36.696Z,98.80
2018-04-28T05:42:50.142Z,99.90
2018-04-28T05:44:55.989Z,99.70
2018-04-28T05:46:56.971Z,99.90
2018-04-28T05:48:58.922Z,99.90
2018-04-28T05:51:11.211Z,99.90
2018-04-28T05:53:24.621Z,99.90
2018-04-28T05:55:36.546Z,99.70
2018-04-28T05:57:50.838Z,97.80
2018-04-28T06:00:04.194Z,97.80
2018-04-28T06:02:27.175Z,95.80
2018-04-28T06:04:37.114Z,97.60
2018-04-28T06:06:40.989Z,97.70
2018-04-28T06:08:42.822Z,95.30
2018-04-28T06:10:45.594Z,96.30
2018-04-28T06:15:29.278Z,91.40
2018-04-28T06:17:32.218Z,90.50
2018-04-28T06:19:41.439Z,92.00
2018-04-28T06:21:43.131Z,92.10
2018-04-28T06:23:44.093Z,92.10
2018-04-28T06:25:45.022Z,91.60
2018-04-28T06:27:45.994Z,91.10
2018-04-28T06:29:46.971Z,91.10
2018-04-28T06:31:48.668Z,93.00
2018-04-28T06:33:49.619Z,92.50
2018-04-28T06:35:50.583Z,92.30
2018-04-28T06:37:51.542Z,88.40
2018-04-28T06:39:52.502Z,91.30
2018-04-28T06:41:53.447Z,90.60
2018-04-28T06:43:54.402Z,91.20
2018-04-28T06:45:55.349Z,90.50
2018-04-28T06:47:56.850Z,90.20
2018-04-28T06:49:57.821Z,91.20
2018-04-28T06:51:58.774Z,87.40
2018-04-28T06:53:59.712Z,86.40
2018-04-28T06:56:00.653Z,91.20
2018-04-28T06:58:01.622Z,85.00
2018-04-28T07:00:02.594Z,90.80
2018-04-28T07:02:04.294Z,91.00
2018-04-28T07:04:05.246Z,91.00
2018-04-28T07:06:06.186Z,90.40
2018-04-28T07:08:07.149Z,92.00
2018-04-28T07:10:08.238Z,92.10
2018-04-28T07:12:09.920Z,90.80
2018-04-28T07:14:10.880Z,90.80
2018-04-28T07:16:11.854Z,85.70
2018-04-28T07:18:12.858Z,77.90
2018-04-28T07:20:13.827Z,81.40
2018-04-28T07:22:14.786Z,73.70
2018-04-28T07:24:15.790Z,76.90
2018-04-28T07:26:17.487Z,78.30
2018-04-28T07:28:19.206Z,81.60
2018-04-28T07:30:20.900Z,77.80
2018-04-28T07:32:22.025Z,75.10
2018-04-28T07:34:23.717Z,74.10
2018-04-28T07:36:24.651Z,74.20
2018-04-28T07:38:25.593Z,66.20
2018-04-28T07:40:26.548Z,73.00
2018-04-28T07:42:27.498Z,77.90
2018-04-28T07:44:28.471Z,72.40
2018-04-28T07:46:29.441Z,63.60
2018-04-28T07:48:30.416Z,70.70
2018-04-28T07:50:31.381Z,69.90
2018-04-28T07:52:32.318Z,64.20
2018-04-28T07:54:33.241Z,60.70
2018-04-28T07:56:34.945Z,59.70
2018-04-28T07:58:35.882Z,60.30
2018-04-28T08:00:36.860Z,59.80
2018-04-28T08:02:37.810Z,56.30
2018-04-28T08:04:38.781Z,64.20
2018-04-28T08:06:39.728Z,58.20
2018-04-28T08:08:41.429Z,58.90
2018-04-28T08:10:42.392Z,59.00
2018-04-28T08:12:43.346Z,52.90
2018-04-28T08:14:44.290Z,51.70
2018-04-28T08:16:45.265Z,57.10
2018-04-28T08:18:46.202Z,50.70
2018-04-28T08:20:47.200Z,52.70
2018-04-28T08:22:48.108Z,55.60
2018-04-28T08:24:49.063Z,52.00
2018-04-28T08:26:50.760Z,55.60
2018-04-28T08:28:52.634Z,50.80
2018-04-28T08:30:53.606Z,50.80
2018-04-28T08:32:54.563Z,52.80
2018-04-28T08:34:55.523Z,56.40
2018-04-28T08:36:56.499Z,56.30
2018-04-28T08:38:58.173Z,47.70
2018-04-28T08:40:59.126Z,48.20
2018-04-28T08:43:00.090Z,55.10
2018-04-28T08:45:01.074Z,50.50
2018-04-28T08:47:02.978Z,52.70
2018-04-28T08:49:03.926Z,52.90
2018-04-28T08:51:05.595Z,57.90
2018-04-28T08:53:06.521Z,58.00
2018-04-28T08:55:07.533Z,51.30
2018-04-28T08:57:08.486Z,51.20
2018-04-28T08:59:09.504Z,56.70
2018-04-28T09:01:10.483Z,45.50
2018-04-28T09:03:12.177Z,46.70
2018-04-28T09:05:13.110Z,47.20
2018-04-28T09:07:23.210Z,51.00
2018-04-28T09:09:24.225Z,44.90
2018-04-28T09:11:25.219Z,46.80
2018-04-28T09:13:26.166Z,50.20
2018-04-28T09:15:27.129Z,48.70
2018-04-28T09:17:28.101Z,47.00
2018-04-28T09:19:29.138Z,43.90
2018-04-28T09:21:30.005Z,45.20
2018-04-28T09:23:31.013Z,43.20
2018-04-28T09:25:33.194Z,40.60
2018-04-28T09:27:34.175Z,47.20
2018-04-28T09:29:35.145Z,51.50
2018-04-28T09:31:36.150Z,46.70
2018-04-28T09:33:37.134Z,47.40
2018-04-28T09:35:38.154Z,45.30
2018-04-28T09:37:39.099Z,47.90
2018-04-28T09:39:40.165Z,45.90
2018-04-28T09:41:41.148Z,42.30
2018-04-28T09:43:42.137Z,47.20
2018-04-28T09:45:43.120Z,46.10
2018-04-28T09:47:44.261Z,43.70
2018-04-28T09:49:45.235Z,48.00
2018-04-28T09:51:46.192Z,46.70
2018-04-28T09:53:47.150Z,45.40
2018-04-28T09:55:48.850Z,47.50
2018-04-28T09:58:02.902Z,47.50
2018-04-28T10:00:16.301Z,44.60
2018-04-28T10:02:17.249Z,42.90
2018-04-28T10:04:18.960Z,44.70
2018-04-28T10:06:19.928Z,44.90
2018-04-28T10:08:20.871Z,46.00
2018-04-28T10:10:21.838Z,47.40
2018-04-28T10:12:22.804Z,50.80
2018-04-28T10:14:24.484Z,52.00
2018-04-28T10:16:25.462Z,51.20
2018-04-28T10:18:26.401Z,45.50
2018-04-28T10:20:27.454Z,37.30
2018-04-28T10:22:28.306Z,35.50
2018-04-28T10:24:29.263Z,36.40
2018-04-28T10:26:30.207Z,43.10
2018-04-28T10:28:31.166Z,40.80
2018-04-28T10:30:32.174Z,38.20
2018-04-28T10:32:33.135Z,40.70
2018-04-28T10:34:34.081Z,41.60
2018-04-28T10:36:35.029Z,45.60
2018-04-28T10:38:35.976Z,43.00
2018-04-28T10:40:36.933Z,50.20
2018-04-28T10:42:37.877Z,47.00
2018-04-28T10:44:38.816Z,40.10
2018-04-28T10:46:39.778Z,39.60
2018-04-28T10:48:40.714Z,44.60
2018-04-28T10:50:41.662Z,43.40
2018-04-28T10:52:42.618Z,41.00
2018-04-28T10:54:43.553Z,35.90
2018-04-28T10:56:44.501Z,42.10
2018-04-28T10:58:45.454Z,38.50
2018-04-28T11:00:46.381Z,40.30
2018-04-28T11:02:47.335Z,34.60
2018-04-28T11:04:48.276Z,37.80
2018-04-28T11:06:49.312Z,37.80
2018-04-28T11:08:50.208Z,33.80
2018-04-28T11:10:51.206Z,33.70
2018-04-28T11:12:52.162Z,37.70
2018-04-28T11:14:53.096Z,36.60
2018-04-28T11:16:54.039Z,38.10
2018-04-28T11:18:54.982Z,39.70
2018-04-28T11:20:55.963Z,40.10
2018-04-28T11:22:56.909Z,37.50
2018-04-28T11:24:57.850Z,37.90
2018-04-28T11:26:58.803Z,42.70
2018-04-28T11:29:00.508Z,39.80
2018-04-28T11:31:01.463Z,39.90
2018-04-28T11:33:02.485Z,43.70
2018-04-28T11:35:03.590Z,41.80
2018-04-28T11:37:04.535Z,42.20
2018-04-28T11:39:05.482Z,42.30
2018-04-28T11:41:06.447Z,36.10
2018-04-28T11:43:08.159Z,45.20
2018-04-28T11:45:09.111Z,45.40
2018-04-28T11:47:10.038Z,37.40
2018-04-28T11:49:10.971Z,43.90
2018-04-28T11:51:11.931Z,41.10
2018-04-28T11:53:12.885Z,40.70
2018-04-28T11:55:13.848Z,40.30
2018-04-28T11:57:14.804Z,43.50
2018-04-28T11:59:15.829Z,44.70
2018-04-28T12:01:16.769Z,45.10
2018-04-28T12:03:17.725Z,49.50
2018-04-28T12:05:18.670Z,37.70
2018-04-28T12:07:19.602Z,44.30
2018-04-28T12:09:20.529Z,43.70
2018-04-28T12:11:21.465Z,45.20
2018-04-28T12:13:23.150Z,42.20
2018-04-28T12:15:24.108Z,41.50
2018-04-28T12:17:25.044Z,41.70
2018-04-28T12:19:26.001Z,44.00
2018-04-28T12:21:26.949Z,39.90
2018-04-28T12:23:27.901Z,39.00
2018-04-28T12:25:28.852Z,38.80
2018-04-28T12:27:29.799Z,38.60
2018-04-28T12:29:30.729Z,43.80
2018-04-28T12:31:32.405Z,41.00
2018-04-28T12:33:33.346Z,40.90
2018-04-28T12:35:34.281Z,42.30
2018-04-28T12:37:35.236Z,45.10
2018-04-28T12:39:36.169Z,37.10
2018-04-28T12:41:37.105Z,39.50
2018-04-28T12:43:38.053Z,37.00
2018-04-28T12:45:38.990Z,42.50
2018-04-28T12:47:39.926Z,42.00
2018-04-28T12:49:40.893Z,36.10
2018-04-28T12:51:42.552Z,32.70
2018-04-28T12:53:43.501Z,32.50
2018-04-28T12:55:44.455Z,34.70
2018-04-28T12:57:45.419Z,31.70
2018-04-28T12:59:46.586Z,37.60
2018-04-28T13:01:47.534Z,35.10
2018-04-28T13:03:48.530Z,33.00
2018-04-28T13:05:49.469Z,33.60
2018-04-28T13:07:50.423Z,35.20
2018-04-28T13:09:51.389Z,38.00
2018-04-28T13:11:52.329Z,37.70
2018-04-28T13:13:53.280Z,37.40
2018-04-28T13:15:54.242Z,37.80
2018-04-28T13:17:55.180Z,39.10
2018-04-28T13:19:56.113Z,36.40
2018-04-28T13:21:57.050Z,33.20
2018-04-28T13:23:58.006Z,29.90
2018-04-28T13:25:58.963Z,34.90
2018-04-28T13:27:59.909Z,37.70
2018-04-28T13:30:00.857Z,35.10
2018-04-28T13:32:01.820Z,29.00
2018-04-28T13:34:02.782Z,29.80
2018-04-28T13:36:04.923Z,38.50
2018-04-28T13:38:05.919Z,39.50
2018-04-28T13:40:06.865Z,38.10
2018-04-28T13:42:07.802Z,32.80
2018-04-28T13:44:09.489Z,34.30
2018-04-28T13:46:10.428Z,34.20
2018-04-28T13:48:11.374Z,32.30
2018-04-28T13:50:12.299Z,34.80
2018-04-28T13:52:13.970Z,34.10
2018-04-28T13:54:14.917Z,34.20
2018-04-28T13:56:15.881Z,38.40
2018-04-28T13:58:16.850Z,35.00
2018-04-28T14:00:17.786Z,37.20
2018-04-28T14:02:18.738Z,37.70
2018-04-28T14:04:19.687Z,38.00
2018-04-28T14:06:20.618Z,39.10
2018-04-28T14:08:21.587Z,36.70
2018-04-28T14:10:22.512Z,35.10
2018-04-28T14:12:23.450Z,34.80
2018-04-28T14:14:24.444Z,35.10
2018-04-28T14:16:25.373Z,35.40
2018-04-28T14:18:26.348Z,37.30
2018-04-28T14:20:28.027Z,36.60
2018-04-28T14:22:28.980Z,36.60
2018-04-28T14:24:29.933Z,39.00
2018-04-28T14:26:30.866Z,42.10
2018-04-28T14:28:31.830Z,35.60
2018-04-28T14:30:32.762Z,36.20
2018-04-28T14:32:33.694Z,35.70
2018-04-28T14:34:35.369Z,33.90
2018-04-28T14:36:36.290Z,32.80
2018-04-28T14:38:37.225Z,34.90
2018-04-28T14:40:38.151Z,34.40
2018-04-28T14:42:39.100Z,38.00
2018-04-28T14:44:40.038Z,33.10
2018-04-28T14:46:40.986Z,31.40
2018-04-28T14:48:41.938Z,34.70
2018-04-28T14:50:42.882Z,29.70
2018-04-28T14:52:43.914Z,36.50
2018-04-28T14:54:44.781Z,29.70
2018-04-28T14:56:45.731Z,35.80
2018-04-28T14:58:46.665Z,41.10
2018-04-28T15:00:47.608Z,35.70
2018-04-28T15:02:48.545Z,33.80
2018-04-28T15:04:49.481Z,38.80
2018-04-28T15:06:50.401Z,36.20
2018-04-28T15:08:51.377Z,36.90
2018-04-28T15:10:52.321Z,35.40
2018-04-28T15:12:53.303Z,38.40
2018-04-28T15:14:54.253Z,37.60
2018-04-28T15:16:55.935Z,36.30
2018-04-28T15:18:56.903Z,36.00
2018-04-28T15:20:57.821Z,35.60
2018-04-28T15:22:58.773Z,37.00
2018-04-28T15:24:59.734Z,36.90
2018-04-28T15:27:00.683Z,37.80
2018-04-28T15:29:01.659Z,34.80
2018-04-28T15:31:02.593Z,31.40
2018-04-28T15:33:03.521Z,32.30
2018-04-28T15:35:04.471Z,33.60
2018-04-28T15:37:05.415Z,32.60
2018-04-28T15:39:06.416Z,38.00
2018-04-28T15:41:08.132Z,34.90
2018-04-28T15:43:09.806Z,32.90
2018-04-28T15:45:10.733Z,32.90
2018-04-28T15:47:11.657Z,37.90
2018-04-28T15:49:12.598Z,32.40
2018-04-28T15:51:13.542Z,37.70
2018-04-28T15:53:14.501Z,35.10
2018-04-28T15:55:15.503Z,32.00
2018-04-28T15:57:16.392Z,32.40
2018-04-28T15:59:17.333Z,32.80
2018-04-28T16:01:18.255Z,32.40
2018-04-28T16:03:19.945Z,36.40
2018-04-28T16:05:20.899Z,37.10
2018-04-28T16:07:21.847Z,32.40
2018-04-28T16:09:22.815Z,32.50
2018-04-28T16:11:23.770Z,34.60
2018-04-28T16:13:24.714Z,31.70
2018-04-28T16:15:25.637Z,34.30
2018-04-28T16:17:26.592Z,37.50
2018-04-28T16:19:27.557Z,38.80
2018-04-28T16:21:28.508Z,32.20
2018-04-28T16:23:29.450Z,36.40
2018-04-28T16:25:30.385Z,36.20
2018-04-28T16:27:31.408Z,38.10
2018-04-28T16:29:32.275Z,41.00
2018-04-28T16:31:33.212Z,43.10
2018-04-28T16:33:34.134Z,42.80
2018-04-28T16:35:35.081Z,41.10
2018-04-28T16:37:36.047Z,40.60
2018-04-28T16:39:36.998Z,38.70
2018-04-28T16:41:37.985Z,37.00
2018-04-28T16:43:39.668Z,40.40
2018-04-28T16:45:40.601Z,40.40
2018-04-28T16:47:42.277Z,45.60
2018-04-28T16:49:43.266Z,45.60
2018-04-28T16:51:44.313Z,44.60
2018-04-28T16:53:45.258Z,43.60
2018-04-28T16:55:46.199Z,42.00
2018-04-28T16:57:47.145Z,42.50
2018-04-28T16:59:48.083Z,41.80
2018-04-28T17:01:48.997Z,41.40
2018-04-28T17:03:50.003Z,41.10
2018-04-28T17:05:50.891Z,38.40
2018-04-28T17:07:51.822Z,37.60
2018-04-28T17:09:52.749Z,41.80
2018-04-28T17:11:53.686Z,41.50
2018-04-28T17:13:54.621Z,41.00
2018-04-28T17:15:55.630Z,41.60
2018-04-28T17:17:56.645Z,43.30
2018-04-28T17:19:58.418Z,38.70
2018-04-28T17:21:59.357Z,38.70
2018-04-28T17:24:01.038Z,40.40
2018-04-28T17:26:02.013Z,40.40
2018-04-28T17:28:02.949Z,40.20
2018-04-28T17:30:03.881Z,41.90
2018-04-28T17:32:05.574Z,44.90
2018-04-28T17:34:06.549Z,44.90
2018-04-28T17:36:07.508Z,47.70
2018-04-28T17:38:09.174Z,45.90
2018-04-28T17:40:10.853Z,43.20
2018-04-28T17:42:11.842Z,43.30
2018-04-28T17:44:13.544Z,49.20
2018-04-28T17:46:15.222Z,49.40
2018-04-28T17:48:16.154Z,49.50
2018-04-28T17:50:17.841Z,47.00
2018-04-28T17:52:18.799Z,47.00
2018-04-28T17:54:19.738Z,48.60
2018-04-28T17:56:20.666Z,51.70
2018-04-28T17:58:21.634Z,50.10
2018-04-28T18:00:22.589Z,51.20
2018-04-28T18:02:23.573Z,45.90
2018-04-28T18:04:24.517Z,50.90
2018-04-28T18:06:25.484Z,52.30
2018-04-28T18:08:27.164Z,50.30
2018-04-28T18:10:28.093Z,51.20
2018-04-28T18:12:29.855Z,46.10
2018-04-28T18:14:30.960Z,46.50
2018-04-28T18:16:32.032Z,51.90
2018-04-28T18:18:33.090Z,52.60
2018-04-28T18:20:34.803Z,56.50
2018-04-28T18:22:35.794Z,56.40
2018-04-28T18:24:36.779Z,62.00
2018-04-28T18:26:37.836Z,62.40
2018-04-28T18:28:38.820Z,66.10
2018-04-28T18:30:39.862Z,67.70
2018-04-28T18:32:41.010Z,63.00
2018-04-28T18:34:42.022Z,65.00
2018-04-28T18:36:43.003Z,69.20
2018-04-28T18:38:44.026Z,70.90
2018-04-28T18:40:45.065Z,74.00
2018-04-28T18:42:46.029Z,73.90
2018-04-28T18:44:47.131Z,73.50
2018-04-28T18:46:48.885Z,74.00
2018-04-28T18:48:49.913Z,74.00
2018-04-28T18:50:51.007Z,75.30
2018-04-28T18:52:51.963Z,75.90
2018-04-28T18:54:53.038Z,74.70
2018-04-28T18:56:54.011Z,72.30
2018-04-28T18:58:55.150Z,67.40
2018-04-28T19:00:56.121Z,70.70
2018-04-28T19:02:57.916Z,71.00
2018-04-28T19:04:58.878Z,71.10
2018-04-28T19:06:59.831Z,76.90
2018-04-28T19:09:00.833Z,82.30
2018-04-28T19:11:01.918Z,87.10
2018-04-28T19:13:02.902Z,84.30
2018-04-28T19:15:03.921Z,83.90
2018-04-28T19:17:05.035Z,87.20
2018-04-28T19:19:06.010Z,87.30
2018-04-28T19:21:06.987Z,90.40
2018-04-28T19:23:08.039Z,87.90
2018-04-28T19:25:09.097Z,88.00
2018-04-28T19:27:10.224Z,90.00
2018-04-28T19:29:11.190Z,88.70
2018-04-28T19:31:12.242Z,90.60
2018-04-28T19:33:13.262Z,90.70
2018-04-28T19:35:14.347Z,87.90
2018-04-28T19:37:16.100Z,91.40
2018-04-28T19:39:17.163Z,91.20
2018-04-28T19:41:18.909Z,92.20
2018-04-28T19:43:19.895Z,92.20
2018-04-28T19:45:20.878Z,86.40
2018-04-28T19:47:21.946Z,91.20
2018-04-28T19:49:22.906Z,91.50
2018-04-28T19:51:23.852Z,88.70
2018-04-28T19:53:25.705Z,89.50
2018-04-28T19:55:26.662Z,89.60
2018-04-28T19:57:27.844Z,85.80
2018-04-28T19:59:28.860Z,89.70
2018-04-28T20:01:30.613Z,91.90
2018-04-28T20:03:31.609Z,91.90
2018-04-28T20:05:32.628Z,91.80
2018-04-28T20:07:33.682Z,92.20
2018-04-28T20:09:34.715Z,92.20
2018-04-28T20:11:35.732Z,91.50
2018-04-28T20:13:36.797Z,91.00
2018-04-28T20:15:37.792Z,90.40
2018-04-28T20:17:38.753Z,92.20
2018-04-28T20:19:39.741Z,92.50
2018-04-28T20:21:40.779Z,94.00
2018-04-28T20:23:54.083Z,94.90
2018-04-28T20:25:55.077Z,95.40
2018-04-28T20:27:56.063Z,96.10
2018-04-28T20:29:57.091Z,96.10
2018-04-28T20:31:58.805Z,95.20
2018-04-28T20:33:59.787Z,95.20
2018-04-28T20:36:00.831Z,95.40
2018-04-28T20:38:01.819Z,95.70
2018-04-28T20:40:02.977Z,94.10
2018-04-28T20:42:03.975Z,93.20
2018-04-28T20:44:04.954Z,92.50
2018-04-28T20:46:06.042Z,94.00
2018-04-28T20:48:07.120Z,94.60
2018-04-28T20:50:08.883Z,94.90
2018-04-28T20:52:09.867Z,94.90
2018-04-28T20:54:10.933Z,94.70
2018-04-28T20:56:11.989Z,94.30
2018-04-28T20:58:13.076Z,94.40
2018-04-28T21:00:14.170Z,94.60
2018-04-28T21:02:15.196Z,95.00
2018-04-28T21:04:16.203Z,96.20
2018-04-28T21:06:17.179Z,95.70
2018-04-28T21:08:18.943Z,97.30
2018-04-28T21:10:19.984Z,97.30
2018-04-28T21:12:20.950Z,97.10
2018-04-28T21:14:22.789Z,97.20
2018-04-28T21:16:23.878Z,97.10
2018-04-28T21:18:24.907Z,98.00
2018-04-28T21:20:26.632Z,97.10
2018-04-28T21:22:27.622Z,97.10
2018-04-28T21:24:28.698Z,97.20
2018-04-28T21:26:29.610Z,97.20
2018-04-28T21:28:31.381Z,96.90
2018-04-28T21:30:32.392Z,96.90
2018-04-28T21:32:33.406Z,96.30
2018-04-28T21:34:34.428Z,95.60
2018-04-28T21:36:35.501Z,96.60
2018-04-28T21:38:36.496Z,97.10
2018-04-28T21:40:38.196Z,98.60
2018-04-28T21:42:40.196Z,98.30
2018-04-28T21:44:41.255Z,97.90
2018-04-28T21:46:42.272Z,98.60
2018-04-28T21:48:44.033Z,97.80
2018-04-28T21:50:45.187Z,97.80
2018-04-28T21:52:46.219Z,97.10
2018-04-28T21:54:47.266Z,97.40
2018-04-28T21:56:48.251Z,97.30
2018-04-28T21:58:49.288Z,98.00
2018-04-28T22:00:50.422Z,98.40
2018-04-28T22:02:51.471Z,98.60
2018-04-28T22:04:53.317Z,98.20
2018-04-28T22:06:54.343Z,98.20
2018-04-28T22:08:55.354Z,98.10
2018-04-28T22:10:56.424Z,98.70
2018-04-28T22:12:57.391Z,99.00
2018-04-28T22:14:59.094Z,99.10
2018-04-28T22:17:00.136Z,99.10
2018-04-28T22:19:01.134Z,99.20
2018-04-28T22:21:02.144Z,99.00
2018-04-28T22:23:03.128Z,98.50
2018-04-28T22:25:04.177Z,98.20
2018-04-28T22:27:05.117Z,98.00
2018-04-28T22:29:06.123Z,99.20
2018-04-28T22:31:07.157Z,99.60
2018-04-28T22:33:08.134Z,99.60
2018-04-28T22:35:09.139Z,99.80
2018-04-28T22:37:10.466Z,99.70
2018-04-28T22:39:11.434Z,99.50
2018-04-28T22:41:13.163Z,99.10
2018-04-28T22:43:14.188Z,99.10
2018-04-28T22:45:15.274Z,99.10
2018-04-28T22:47:16.255Z,99.10
2018-04-28T22:49:17.269Z,98.70
2018-04-28T22:51:18.275Z,98.30
2018-04-28T22:53:20.058Z,97.70
2018-04-28T22:55:21.049Z,97.70
2018-04-28T22:57:22.051Z,98.70
2018-04-28T22:59:23.102Z,99.10
2018-04-28T23:01:24.159Z,99.20
2018-04-28T23:03:25.131Z,99.20
2018-04-28T23:05:26.089Z,99.20
2018-04-28T23:07:27.115Z,99.70
2018-04-28T23:09:28.836Z,99.90
2018-04-28T23:11:29.889Z,99.90
2018-04-28T23:13:30.938Z,99.90
2018-04-28T23:15:31.897Z,99.90
2018-04-28T23:17:32.857Z,99.30
2018-04-28T23:19:33.831Z,98.90
2018-04-28T23:21:34.891Z,98.60
2018-04-28T23:23:35.822Z,99.20
2018-04-28T23:25:36.866Z,98.90
2018-04-28T23:27:38.590Z,99.90
2018-04-28T23:29:39.751Z,99.90
2018-04-28T23:31:41.536Z,99.90
2018-04-28T23:33:43.283Z,99.90
2018-04-28T23:35:44.251Z,99.90
2018-04-28T23:37:45.961Z,99.90
2018-04-28T23:39:47.417Z,99.80
2018-04-28T23:41:48.443Z,99.80
2018-04-28T23:43:49.649Z,99.50
2018-04-28T23:45:50.595Z,99.70
2018-04-28T23:47:51.558Z,99.20
2018-04-28T23:49:52.595Z,98.60
2018-04-28T23:51:53.550Z,98.80
2018-04-28T23:53:55.302Z,98.10
2018-04-28T23:55:56.317Z,98.10
2018-04-28T23:57:57.381Z,98.60
2018-04-28T23:59:58.455Z,99.30
